createdAt,value
2019-01-31T00:00:25.239Z,108.50
2019-01-31T00:03:27.717Z,113.63
2019-01-31T00:06:18.942Z,85.60
2019-01-31T00:09:21.410Z,95.60
2019-01-31T00:12:50.920Z,85.93
2019-01-31T00:15:42.837Z,85.40
2019-01-31T00:18:43.886Z,85.77
2019-01-31T00:22:01.218Z,78.53
2019-01-31T00:25:01.946Z,76.40
2019-01-31T00:28:21.840Z,73.37
2019-01-31T00:31:30.028Z,76.93
2019-01-31T00:34:59.359Z,72.37
2019-01-31T00:37:41.323Z,80.93
2019-01-31T00:40:40.982Z,75.57
2019-01-31T00:43:40.368Z,74.40
2019-01-31T00:46:52.681Z,90.13
2019-01-31T00:49:34.326Z,77.10
2019-01-31T00:52:31.198Z,73.50
2019-01-31T00:55:34.716Z,80.50
2019-01-31T00:58:36.930Z,59.60
2019-01-31T01:01:50.525Z,58.13
2019-01-31T01:05:04.977Z,63.10
2019-01-31T01:08:07.124Z,76.53
2019-01-31T01:11:07.511Z,69.10
2019-01-31T01:14:21.317Z,65.17
2019-01-31T01:17:17.351Z,63.50
2019-01-31T01:20:02.501Z,55.97
2019-01-31T01:22:50.373Z,58.50
2019-01-31T01:26:10.549Z,49.30
2019-01-31T01:28:57.191Z,48.17
2019-01-31T01:31:59.340Z,47.97
2019-01-31T01:35:09.378Z,46.53
2019-01-31T01:37:55.033Z,51.03
2019-01-31T01:40:54.571Z,59.27
2019-01-31T01:43:41.972Z,52.33
2019-01-31T01:46:48.056Z,49.90
2019-01-31T01:49:42.220Z,60.53
2019-01-31T01:52:45.127Z,47.43
2019-01-31T01:55:52.493Z,57.17
2019-01-31T01:58:45.782Z,64.80
2019-01-31T02:01:42.883Z,68.63
2019-01-31T02:04:34.902Z,61.00
2019-01-31T02:08:03.863Z,55.77
2019-01-31T02:11:19.448Z,56.80
2019-01-31T02:14:00.513Z,51.03
2019-01-31T02:16:57.305Z,44.00
2019-01-31T02:20:02.922Z,48.87
2019-01-31T02:22:57.488Z,50.83
2019-01-31T02:26:14.529Z,48.90
2019-01-31T02:29:21.616Z,42.63
2019-01-31T02:32:28.145Z,37.73
2019-01-31T02:35:42.066Z,36.87
2019-01-31T02:38:31.289Z,47.20
2019-01-31T02:41:48.321Z,56.37
2019-01-31T02:44:33.456Z,53.87
2019-01-31T02:47:45.870Z,48.23
2019-01-31T02:50:40.696Z,46.33
2019-01-31T02:53:58.169Z,43.37
2019-01-31T02:56:50.379Z,48.50
2019-01-31T03:00:06.257Z,46.60
2019-01-31T03:02:46.687Z,51.07
2019-01-31T03:05:35.085Z,50.03
2019-01-31T03:08:16.824Z,50.27
2019-01-31T03:11:22.118Z,46.07
2019-01-31T03:14:10.400Z,50.13
2019-01-31T03:17:07.186Z,45.07
2019-01-31T03:20:05.238Z,62.50
2019-01-31T03:23:04.972Z,58.53
2019-01-31T03:26:24.864Z,55.00
2019-01-31T03:29:29.383Z,53.67
2019-01-31T03:32:39.337Z,49.40
2019-01-31T03:35:27.771Z,60.13
2019-01-31T03:38:41.729Z,67.93
2019-01-31T03:42:00.217Z,64.33
2019-01-31T03:45:00.509Z,74.10
2019-01-31T03:48:03.745Z,57.30
2019-01-31T03:51:12.017Z,72.47
2019-01-31T03:54:11.445Z,65.77
2019-01-31T03:57:25.777Z,86.77
2019-01-31T04:00:35.628Z,74.33
2019-01-31T04:03:22.733Z,65.83
2019-01-31T04:06:23.175Z,57.40
2019-01-31T04:08:53.633Z,58.83
2019-01-31T04:11:23.883Z,56.67
2019-01-31T04:13:54.176Z,59.57
2019-01-31T04:16:24.574Z,57.77
2019-01-31T04:18:54.831Z,56.83
2019-01-31T04:21:25.137Z,66.37
2019-01-31T04:23:55.394Z,81.30
2019-01-31T04:26:25.625Z,83.80
2019-01-31T04:28:56.061Z,69.90
2019-01-31T04:31:26.346Z,63.63
2019-01-31T04:33:56.591Z,58.70
2019-01-31T04:36:26.871Z,51.90
2019-01-31T04:38:57.489Z,66.83
2019-01-31T04:41:27.733Z,72.83
2019-01-31T04:43:58.053Z,51.07
2019-01-31T04:46:28.328Z,58.13
2019-01-31T04:48:58.680Z,52.27
2019-01-31T04:51:28.984Z,54.57
2019-01-31T04:53:59.245Z,55.23
2019-01-31T04:56:29.518Z,55.13
2019-01-31T04:58:59.768Z,52.47
2019-01-31T05:01:30.025Z,68.13
2019-01-31T05:04:00.359Z,75.70
2019-01-31T05:06:30.665Z,81.90
2019-01-31T05:09:00.898Z,59.97
2019-01-31T05:11:31.097Z,58.43
2019-01-31T05:14:01.389Z,78.17
2019-01-31T05:16:31.700Z,78.70
2019-01-31T05:19:01.970Z,83.53
2019-01-31T05:21:32.357Z,64.30
2019-01-31T05:24:02.665Z,57.37
2019-01-31T05:26:32.998Z,67.97
2019-01-31T05:29:03.268Z,78.67
2019-01-31T05:31:33.486Z,63.07
2019-01-31T05:34:03.747Z,83.33
2019-01-31T05:36:34.034Z,55.30
2019-01-31T05:39:05.871Z,51.53
2019-01-31T05:41:36.149Z,56.20
2019-01-31T05:44:06.505Z,71.93
2019-01-31T05:46:36.808Z,53.90
2019-01-31T05:49:06.996Z,55.37
2019-01-31T05:51:39.378Z,55.60
2019-01-31T05:54:09.170Z,54.33
2019-01-31T05:56:39.425Z,51.07
2019-01-31T05:59:09.766Z,52.70
2019-01-31T06:01:40.060Z,58.77
2019-01-31T06:04:10.389Z,71.33
2019-01-31T06:06:40.675Z,83.23
2019-01-31T06:09:10.902Z,61.27
2019-01-31T06:11:41.131Z,64.40
2019-01-31T06:14:11.572Z,59.63
2019-01-31T06:16:41.930Z,63.53
2019-01-31T06:19:12.234Z,57.00
2019-01-31T06:21:42.515Z,72.57
2019-01-31T06:24:12.756Z,52.83
2019-01-31T06:26:43.007Z,54.20
2019-01-31T06:29:13.307Z,49.47
2019-01-31T06:31:43.518Z,49.23
2019-01-31T06:34:13.813Z,48.30
2019-01-31T06:36:44.149Z,52.23
2019-01-31T06:39:15.006Z,60.10
2019-01-31T06:41:45.240Z,54.37
2019-01-31T06:44:15.523Z,58.47
2019-01-31T06:46:45.773Z,58.43
2019-01-31T06:49:16.034Z,57.23
2019-01-31T06:51:46.301Z,64.40
2019-01-31T06:54:16.537Z,60.17
2019-01-31T06:56:46.800Z,57.97
2019-01-31T06:59:17.091Z,70.60
2019-01-31T07:01:47.578Z,85.93
2019-01-31T07:04:17.828Z,62.03
2019-01-31T07:06:48.045Z,66.20
2019-01-31T07:09:18.307Z,60.17
2019-01-31T07:11:48.496Z,56.53
2019-01-31T07:14:18.765Z,52.03
2019-01-31T07:16:49.070Z,55.23
2019-01-31T07:19:19.300Z,55.07
2019-01-31T07:21:49.696Z,63.83
2019-01-31T07:24:19.898Z,57.00
2019-01-31T07:26:50.178Z,63.47
2019-01-31T07:29:20.541Z,53.93
2019-01-31T07:31:50.801Z,60.93
2019-01-31T07:34:21.014Z,57.90
2019-01-31T07:36:51.310Z,58.27
2019-01-31T07:39:21.580Z,60.43
2019-01-31T07:41:51.939Z,53.10
2019-01-31T07:44:22.292Z,64.77
2019-01-31T07:46:52.541Z,66.90
2019-01-31T07:49:22.733Z,60.47
2019-01-31T07:51:53.233Z,61.87
2019-01-31T07:54:23.485Z,75.00
2019-01-31T07:56:53.778Z,67.57
2019-01-31T07:59:24.038Z,64.50
2019-01-31T08:01:54.231Z,71.90
2019-01-31T08:04:24.589Z,80.67
2019-01-31T08:06:54.889Z,94.37
2019-01-31T08:09:25.041Z,80.60
2019-01-31T08:11:55.233Z,91.40
2019-01-31T08:14:25.535Z,81.70
2019-01-31T11:37:45.739Z,261.87
2019-01-31T11:41:04.718Z,236.07
2019-01-31T11:44:17.811Z,207.43
2019-01-31T11:47:38.558Z,200.30
2019-01-31T11:50:48.103Z,253.13
2019-01-31T11:53:52.312Z,226.60
2019-01-31T11:57:15.165Z,177.63
2019-01-31T11:59:45.591Z,167.13
2019-01-31T12:02:16.282Z,179.97
2019-01-31T12:04:46.582Z,232.13
2019-01-31T12:07:16.800Z,253.77
2019-01-31T12:09:47.033Z,265.40
2019-01-31T12:12:17.333Z,259.20
2019-01-31T12:14:47.552Z,328.33
2019-01-31T12:17:17.785Z,304.83
2019-01-31T12:19:48.093Z,412.20
2019-01-31T12:22:18.339Z,496.37
2019-01-31T12:24:50.624Z,371.83
2019-01-31T12:27:21.713Z,515.50
2019-01-31T12:29:51.953Z,535.67
2019-01-31T12:32:22.204Z,357.80
2019-01-31T12:34:52.496Z,451.63
2019-01-31T12:37:22.927Z,285.67
2019-01-31T12:39:53.155Z,284.40
2019-01-31T12:42:23.446Z,419.30
2019-01-31T12:44:53.617Z,237.93
2019-01-31T12:47:23.942Z,416.43
2019-01-31T12:49:54.310Z,475.50
2019-01-31T12:52:24.763Z,297.43
2019-01-31T12:54:54.979Z,226.93
2019-01-31T12:57:25.308Z,393.20
2019-01-31T12:59:55.557Z,227.50
2019-01-31T13:02:25.760Z,293.27
2019-01-31T13:04:56.262Z,326.80
2019-01-31T13:07:26.593Z,205.67
2019-01-31T13:09:56.825Z,170.20
2019-01-31T13:12:27.124Z,178.23
2019-01-31T13:14:57.353Z,162.07
2019-01-31T13:17:27.636Z,165.60
2019-01-31T13:19:58.119Z,114.20
2019-01-31T13:22:28.623Z,97.13
2019-01-31T13:24:58.875Z,81.20
2019-01-31T13:27:29.195Z,78.43
2019-01-31T13:29:59.450Z,73.73
2019-01-31T13:32:29.622Z,81.37
2019-01-31T13:34:59.943Z,77.23
2019-01-31T13:37:30.222Z,74.63
2019-01-31T13:40:00.544Z,76.97
2019-01-31T13:42:31.044Z,64.10
2019-01-31T13:45:01.435Z,57.80
2019-01-31T13:47:31.781Z,59.70
2019-01-31T13:50:02.066Z,52.17
2019-01-31T13:52:32.508Z,59.50
2019-01-31T13:55:02.787Z,53.70
2019-01-31T13:57:33.266Z,61.83
2019-01-31T14:00:03.516Z,59.47
2019-01-31T14:02:33.748Z,62.97
2019-01-31T14:05:04.034Z,63.43
2019-01-31T14:07:34.410Z,62.83
2019-01-31T14:10:04.889Z,71.23
2019-01-31T14:12:35.192Z,66.53
2019-01-31T14:15:06.751Z,74.97
2019-01-31T14:17:36.835Z,76.47
2019-01-31T14:20:09.168Z,73.80
2019-01-31T14:22:42.930Z,74.23
2019-01-31T14:25:11.447Z,62.37
2019-01-31T14:27:42.064Z,60.23
2019-01-31T14:30:24.633Z,66.27
2019-01-31T14:32:55.062Z,60.30
2019-01-31T14:35:25.453Z,68.47
2019-01-31T14:37:55.707Z,66.70
2019-01-31T14:40:27.601Z,59.90
2019-01-31T14:42:58.164Z,62.57
2019-01-31T14:45:30.063Z,62.30
2019-01-31T14:48:00.388Z,64.47
2019-01-31T14:50:32.213Z,61.93
2019-01-31T14:53:03.343Z,61.73
2019-01-31T14:55:33.620Z,57.73
2019-01-31T14:58:04.005Z,63.77
2019-01-31T15:00:34.234Z,60.00
2019-01-31T15:03:04.528Z,63.07
2019-01-31T15:05:36.756Z,64.33
2019-01-31T15:08:07.464Z,64.83
2019-01-31T15:10:37.936Z,63.63
2019-01-31T15:13:08.369Z,57.13
2019-01-31T15:15:38.591Z,61.13
2019-01-31T15:18:09.703Z,65.43
2019-01-31T15:20:45.330Z,63.07
2019-01-31T15:23:15.670Z,61.53
2019-01-31T15:25:45.948Z,64.77
2019-01-31T15:28:16.199Z,65.90
2019-01-31T15:30:46.433Z,61.47
2019-01-31T15:33:16.715Z,61.13
2019-01-31T15:35:46.962Z,63.23
2019-01-31T15:38:17.266Z,62.97
2019-01-31T15:40:49.179Z,74.93
2019-01-31T15:43:19.426Z,64.47
2019-01-31T15:45:49.873Z,61.67
2019-01-31T15:48:20.133Z,68.67
2019-01-31T15:50:50.304Z,74.37
2019-01-31T15:53:22.264Z,72.47
2019-01-31T15:55:52.801Z,71.43
2019-01-31T15:58:23.158Z,79.10
2019-01-31T16:00:55.737Z,87.60
2019-01-31T16:03:27.081Z,84.27
2019-01-31T16:05:57.458Z,82.70
2019-01-31T16:08:27.867Z,78.10
2019-01-31T16:10:58.159Z,90.90
2019-01-31T16:13:28.474Z,99.40
2019-01-31T16:15:58.974Z,90.93
2019-01-31T16:18:29.215Z,79.60
2019-01-31T16:20:59.416Z,84.87
2019-01-31T16:23:29.734Z,95.90
2019-01-31T16:26:00.009Z,74.97
2019-01-31T16:28:30.184Z,78.50
2019-01-31T16:31:00.508Z,88.13
2019-01-31T16:33:30.758Z,83.03
2019-01-31T16:36:00.949Z,79.67
2019-01-31T16:38:31.236Z,81.40
2019-01-31T16:41:01.536Z,79.60
2019-01-31T16:43:31.845Z,80.47
2019-01-31T16:46:02.096Z,78.90
2019-01-31T16:48:32.454Z,76.10
2019-01-31T16:51:02.733Z,66.73
2019-01-31T16:53:33.005Z,76.20
2019-01-31T16:56:03.228Z,91.13
2019-01-31T16:58:33.571Z,68.10
2019-01-31T17:01:03.889Z,79.17
2019-01-31T17:03:34.142Z,75.43
2019-01-31T17:06:04.610Z,76.43
2019-01-31T17:08:34.936Z,73.97
2019-01-31T17:11:05.356Z,71.83
2019-01-31T17:13:35.625Z,80.63
2019-01-31T17:16:06.129Z,72.00
2019-01-31T17:18:36.377Z,94.07
2019-01-31T17:21:06.564Z,82.63
2019-01-31T17:23:36.841Z,80.67
2019-01-31T17:26:07.042Z,92.53
2019-01-31T17:28:37.373Z,87.23
2019-01-31T17:31:07.633Z,67.40
2019-01-31T17:33:37.882Z,73.77
2019-01-31T17:36:08.129Z,80.63
2019-01-31T17:38:38.516Z,81.90
2019-01-31T17:41:10.566Z,81.57
2019-01-31T17:43:42.088Z,86.67
2019-01-31T17:46:13.064Z,85.90
2019-01-31T17:48:43.308Z,90.53
2019-01-31T17:51:14.959Z,89.80
2019-01-31T17:53:45.463Z,80.03
2019-01-31T17:56:15.734Z,91.07
2019-01-31T17:58:45.919Z,94.00
2019-01-31T18:01:16.348Z,89.30
2019-01-31T18:03:46.585Z,100.73
2019-01-31T18:06:18.846Z,83.60
2019-01-31T18:08:48.769Z,94.53
2019-01-31T18:11:19.027Z,101.27
2019-01-31T18:13:49.383Z,102.13
2019-01-31T18:16:19.604Z,98.50
2019-01-31T18:18:49.892Z,89.77
2019-01-31T18:21:20.117Z,92.23
2019-01-31T18:23:50.371Z,94.67
2019-01-31T18:26:20.610Z,101.27
2019-01-31T18:28:50.767Z,91.80
2019-01-31T18:31:21.137Z,91.50
2019-01-31T18:33:51.408Z,86.03
2019-01-31T18:36:21.652Z,89.20
2019-01-31T18:38:51.909Z,86.97
2019-01-31T18:41:22.193Z,86.70
2019-01-31T18:43:52.381Z,89.80
2019-01-31T18:46:22.577Z,80.23
2019-01-31T18:48:52.842Z,100.53
2019-01-31T18:51:23.121Z,106.67
2019-01-31T18:53:53.631Z,112.90
2019-01-31T18:56:23.880Z,100.97
2019-01-31T18:58:54.138Z,103.03
2019-01-31T19:01:24.397Z,102.97
2019-01-31T19:03:54.649Z,100.30
2019-01-31T19:06:25.000Z,121.33
2019-01-31T19:08:55.417Z,112.20
2019-01-31T19:11:25.664Z,122.87
2019-01-31T19:13:56.025Z,110.20
2019-01-31T19:16:26.342Z,118.77
2019-01-31T19:18:56.635Z,133.63
2019-01-31T19:21:26.859Z,131.37
2019-01-31T19:23:57.099Z,127.77
2019-01-31T19:26:27.364Z,123.40
2019-01-31T19:28:57.613Z,107.30
2019-01-31T19:31:27.853Z,130.03
2019-01-31T19:33:58.114Z,114.17
2019-01-31T19:36:30.910Z,112.80
2019-01-31T19:39:00.620Z,156.93
2019-01-31T19:41:30.885Z,168.63
2019-01-31T19:44:01.085Z,130.80
2019-01-31T19:46:31.388Z,121.80
2019-01-31T19:49:01.630Z,137.20
2019-01-31T19:51:31.830Z,140.77
2019-01-31T19:54:02.124Z,135.70
2019-01-31T19:56:32.424Z,187.20
2019-01-31T19:59:02.625Z,150.27
2019-01-31T20:01:32.856Z,160.63
2019-01-31T20:04:03.140Z,125.93
2019-01-31T20:06:33.393Z,139.40
2019-01-31T20:09:05.266Z,149.37
2019-01-31T20:11:35.340Z,136.70
2019-01-31T20:14:05.680Z,151.53
2019-01-31T20:16:35.979Z,164.83
2019-01-31T20:19:06.246Z,150.47
2019-01-31T20:21:36.528Z,150.63
2019-01-31T20:24:07.024Z,133.37
2019-01-31T20:26:37.308Z,155.20
2019-01-31T20:29:07.528Z,146.70
2019-01-31T20:31:37.804Z,134.90
2019-01-31T20:34:09.328Z,142.90
2019-01-31T20:36:39.536Z,157.70
2019-01-31T20:39:10.601Z,144.33
2019-01-31T20:41:40.936Z,158.07
2019-01-31T20:44:11.217Z,149.33
2019-01-31T20:46:41.689Z,126.53
2019-01-31T20:49:11.943Z,144.93
2019-01-31T20:51:42.170Z,132.20
2019-01-31T20:54:12.485Z,148.07
2019-01-31T20:56:42.722Z,146.53
2019-01-31T20:59:13.051Z,131.73
2019-01-31T21:01:43.347Z,142.47
2019-01-31T21:04:13.615Z,137.93
2019-01-31T21:06:43.906Z,158.23
2019-01-31T21:09:14.982Z,156.37
2019-01-31T21:11:45.344Z,155.47
2019-01-31T21:14:15.898Z,137.97
2019-01-31T21:16:51.719Z,161.00
2019-01-31T21:19:18.076Z,154.13
2019-01-31T21:21:48.336Z,148.60
2019-01-31T21:24:18.577Z,133.87
2019-01-31T21:26:48.825Z,171.00
2019-01-31T21:29:19.085Z,159.43
2019-01-31T21:31:49.379Z,166.20
2019-01-31T21:34:19.789Z,159.27
2019-01-31T21:36:50.053Z,153.70
2019-01-31T21:39:20.316Z,124.50
2019-01-31T21:41:50.638Z,164.07
2019-01-31T21:44:20.881Z,105.43
2019-01-31T21:47:02.459Z,104.43
2019-01-31T21:49:23.074Z,159.47
2019-01-31T21:51:53.314Z,128.47
2019-01-31T21:54:23.602Z,136.33
2019-01-31T21:56:53.833Z,166.27
2019-01-31T21:59:24.102Z,192.90
2019-01-31T22:01:54.505Z,176.73
2019-01-31T22:04:24.710Z,217.20
2019-01-31T22:06:54.920Z,194.63
2019-01-31T22:09:25.240Z,173.90
2019-01-31T22:11:55.513Z,153.97
2019-01-31T22:14:25.627Z,178.77
2019-01-31T22:16:55.861Z,169.07
2019-01-31T22:19:26.019Z,182.93
2019-01-31T22:21:56.240Z,116.83
2019-01-31T22:24:26.463Z,140.30
2019-01-31T22:26:56.738Z,216.40
2019-01-31T22:29:26.904Z,197.37
2019-01-31T22:31:57.218Z,217.17
2019-01-31T22:34:27.346Z,172.60
2019-01-31T22:36:57.626Z,128.40
2019-01-31T22:39:27.994Z,166.87
2019-01-31T22:41:58.247Z,176.17
2019-01-31T22:44:28.334Z,161.27
2019-01-31T22:46:58.703Z,139.90
2019-01-31T22:49:28.834Z,131.77
2019-01-31T22:51:59.057Z,133.97
2019-01-31T22:54:29.424Z,150.57
2019-01-31T22:56:59.698Z,164.00
2019-01-31T22:59:29.781Z,237.33
2019-01-31T23:02:06.557Z,190.87
2019-01-31T23:04:37.901Z,151.93
2019-01-31T23:07:08.231Z,200.07
2019-01-31T23:09:38.609Z,184.83
2019-01-31T23:12:08.815Z,169.50
2019-01-31T23:14:39.048Z,151.67
2019-01-31T23:17:09.286Z,154.23
2019-01-31T23:19:39.552Z,165.03
2019-01-31T23:22:09.824Z,194.30
2019-01-31T23:24:40.170Z,195.53
2019-01-31T23:27:10.421Z,156.50
2019-01-31T23:29:40.639Z,143.23
2019-01-31T23:32:10.971Z,157.97
2019-01-31T23:34:41.259Z,120.97
2019-01-31T23:37:11.516Z,183.93
2019-01-31T23:39:41.852Z,190.50
2019-01-31T23:42:12.360Z,224.83
2019-01-31T23:44:42.718Z,127.10
2019-01-31T23:47:13.056Z,130.50
2019-01-31T23:49:43.228Z,206.73
2019-01-31T23:52:13.477Z,120.07
2019-01-31T23:54:43.747Z,153.23
2019-01-31T23:57:13.978Z,165.13
2019-01-31T23:59:44.248Z,154.77
